Time,TemperatureF,DewpointF,PressureIn,WindDirection,WindDirectionDegrees,WindSpeedMPH,WindSpeedGustMPH,Humidity,HourlyPrecipIn,Conditions,Clouds,dailyrainin,SoftwareType,DateUTC
2013-04-21 00:00:00,36.3,18.9,30.28,WNW,287,4.0,4.0,49,0.00,,,0.14,Wunderground v.1.15,2013-04-21 04:00:00,
2013-04-21 00:05:00,36.3,18.9,30.28,West,269,4.0,4.0,49,0.00,,,0.00,Wunderground v.1.15,2013-04-21 04:05:00,
2013-04-21 00:10:00,36.3,18.9,30.29,WSW,252,3.0,4.0,49,0.00,,,0.00,Wunderground v.1.15,2013-04-21 04:10:00,
2013-04-21 00:15:00,36.6,18.7,30.29,NNE,23,5.0,6.0,48,0.00,,,0.00,Wunderground v.1.15,2013-04-21 04:15:00,
2013-04-21 00:25:00,36.7,19.3,30.30,West,277,6.0,7.0,49,0.00,,,0.00,Wunderground v.1.15,2013-04-21 04:25:00,
2013-04-21 00:30:00,36.7,18.8,30.30,WNW,282,6.0,6.0,48,0.00,,,0.00,Wunderground v.1.15,2013-04-21 04:30:00,
2013-04-21 00:40:00,36.7,19.3,30.31,WNW,294,5.0,5.0,49,0.00,,,0.00,Wunderground v.1.15,2013-04-21 04:40:00,
2013-04-21 00:45:00,36.6,19.7,30.31,WSW,258,4.0,5.0,50,0.00,,,0.00,Wunderground v.1.15,2013-04-21 04:45:00,
2013-04-21 00:50:00,36.5,20.1,30.31,West,264,4.0,7.0,51,0.00,,,0.00,Wunderground v.1.15,2013-04-21 04:50:00,
2013-04-21 00:55:00,36.6,20.2,30.31,West,281,5.0,7.0,51,0.00,,,0.00,Wunderground v.1.15,2013-04-21 04:55:00,
2013-04-21 01:00:00,36.5,20.1,30.32,WNW,284,5.0,6.0,51,0.00,,,0.00,Wunderground v.1.15,2013-04-21 05:00:00,
2013-04-21 01:10:00,36.5,19.1,30.33,West,267,8.0,8.0,49,0.00,,,0.00,Wunderground v.1.15,2013-04-21 05:10:00,
2013-04-21 01:20:00,36.2,17.4,30.33,WNW,285,8.0,8.0,46,0.00,,,0.00,Wunderground v.1.15,2013-04-21 05:20:00,
2013-04-21 01:25:00,36.0,17.2,30.33,WNW,303,8.0,8.0,46,0.00,,,0.00,Wunderground v.1.15,2013-04-21 05:25:00,
2013-04-21 01:35:00,35.9,17.1,30.33,WNW,301,6.0,7.0,46,0.00,,,0.00,Wunderground v.1.15,2013-04-21 05:35:00,
2013-04-21 01:40:00,35.6,16.8,30.33,WNW,303,5.0,10.0,46,0.00,,,0.00,Wunderground v.1.15,2013-04-21 05:40:00,
2013-04-21 01:45:00,35.5,17.2,30.34,WNW,302,4.0,10.0,47,0.00,,,0.00,Wunderground v.1.15,2013-04-21 05:45:00,
2013-04-21 01:50:00,35.4,17.1,30.34,West,271,4.0,4.0,47,0.00,,,0.00,Wunderground v.1.15,2013-04-21 05:50:00,
2013-04-21 01:55:00,35.4,17.1,30.34,NW,311,4.0,5.0,47,0.00,,,0.00,Wunderground v.1.15,2013-04-21 05:55:00,
2013-04-21 02:00:00,35.3,17.1,30.34,WNW,301,5.0,8.0,47,0.00,,,0.00,Wunderground v.1.15,2013-04-21 06:00:00,
2013-04-21 02:05:00,35.3,17.1,30.35,NNW,342,5.0,8.0,47,0.00,,,0.00,Wunderground v.1.15,2013-04-21 06:05:00,
2013-04-21 02:10:00,35.2,17.9,30.35,NW,306,6.0,6.0,49,0.00,,,0.00,Wunderground v.1.15,2013-04-21 06:10:00,
2013-04-21 02:15:00,35.2,17.9,30.35,NW,305,6.0,6.0,49,0.00,,,0.00,Wunderground v.1.15,2013-04-21 06:15:00,
2013-04-21 02:25:00,35.0,17.7,30.36,NNW,329,4.0,6.0,49,0.00,,,0.00,Wunderground v.1.15,2013-04-21 06:25:00,
2013-04-21 02:30:00,35.0,18.2,30.36,NNW,328,5.0,5.0,50,0.00,,,0.00,Wunderground v.1.15,2013-04-21 06:30:00,
2013-04-21 02:35:00,35.0,18.2,30.36,NNW,330,5.0,5.0,50,0.00,,,0.00,Wunderground v.1.15,2013-04-21 06:35:00,
2013-04-21 02:45:00,34.6,17.8,30.36,NNW,333,5.0,8.0,50,0.00,,,0.00,Wunderground v.1.15,2013-04-21 06:45:00,
2013-04-21 02:50:00,34.6,19.2,30.36,ESE,102,6.0,6.0,53,0.00,,,0.00,Wunderground v.1.15,2013-04-21 06:50:00,
2013-04-21 02:55:00,34.3,16.1,30.37,North,350,6.0,11.0,47,0.00,,,0.00,Wunderground v.1.15,2013-04-21 06:55:00,
2013-04-21 03:00:00,34.1,16.4,30.37,North,351,8.0,8.0,48,0.00,,,0.00,Wunderground v.1.15,2013-04-21 07:00:00,
2013-04-21 03:05:00,34.1,16.4,30.38,NNE,19,6.0,8.0,48,0.00,,,0.00,Wunderground v.1.15,2013-04-21 07:05:00,
2013-04-21 03:15:00,33.8,18.0,30.38,North,5,5.0,5.0,52,0.00,,,0.00,Wunderground v.1.15,2013-04-21 07:15:00,
2013-04-21 03:20:00,33.6,17.4,30.39,North,360,4.0,4.0,51,0.00,,,0.00,Wunderground v.1.15,2013-04-21 07:20:00,
2013-04-21 03:25:00,33.5,17.3,30.39,NNE,24,3.0,4.0,51,0.00,,,0.00,Wunderground v.1.15,2013-04-21 07:25:00,
2013-04-21 03:30:00,33.4,17.6,30.39,NNE,22,3.0,4.0,52,0.00,,,0.00,Wunderground v.1.15,2013-04-21 07:30:00,
2013-04-21 03:35:00,33.6,22.3,30.40,NE,38,4.0,5.0,63,0.00,,,0.00,Wunderground v.1.15,2013-04-21 07:35:00,
2013-04-21 03:45:00,33.4,17.6,30.40,NNW,344,3.0,4.0,52,0.00,,,0.00,Wunderground v.1.15,2013-04-21 07:45:00,
2013-04-21 03:50:00,33.3,17.5,30.40,NNW,328,3.0,3.0,52,0.00,,,0.00,Wunderground v.1.15,2013-04-21 07:50:00,
2013-04-21 04:00:00,33.3,17.5,30.41,NNW,348,4.0,5.0,52,0.00,,,0.00,Wunderground v.1.15,2013-04-21 08:00:00,
2013-04-21 04:10:00,33.3,17.1,30.42,NNW,342,4.0,5.0,51,0.00,,,0.00,Wunderground v.1.15,2013-04-21 08:10:00,
2013-04-21 04:15:00,33.2,17.9,30.42,North,9,4.0,5.0,53,0.00,,,0.00,Wunderground v.1.15,2013-04-21 08:15:00,
2013-04-21 04:20:00,33.1,17.4,30.42,NNW,329,3.0,3.0,52,0.00,,,0.00,Wunderground v.1.15,2013-04-21 08:20:00,
2013-04-21 04:30:00,32.8,17.5,30.43,North,5,4.0,5.0,53,0.00,,,0.00,Wunderground v.1.15,2013-04-21 08:30:00,
2013-04-21 04:35:00,32.9,18.1,30.43,NNE,15,6.0,6.0,54,0.00,,,0.00,Wunderground v.1.15,2013-04-21 08:35:00,
2013-04-21 04:45:00,32.9,18.5,30.43,NNE,17,7.0,7.0,55,0.00,,,0.00,Wunderground v.1.15,2013-04-21 08:45:00,
2013-04-21 04:50:00,33.0,18.6,30.44,NNE,23,8.0,8.0,55,0.00,,,0.00,Wunderground v.1.15,2013-04-21 08:50:00,
2013-04-21 04:55:00,32.9,18.5,30.45,NNE,15,8.0,13.0,55,0.00,,,0.00,Wunderground v.1.15,2013-04-21 08:55:00,
2013-04-21 05:00:00,32.8,18.0,30.44,NNW,344,8.0,8.0,54,0.00,,,0.00,Wunderground v.1.15,2013-04-21 09:00:00,
2013-04-21 05:05:00,32.6,17.8,30.44,North,355,8.0,9.0,54,0.00,,,0.00,Wunderground v.1.15,2013-04-21 09:05:00,
2013-04-21 05:10:00,32.5,18.1,30.45,NNW,327,9.0,9.0,55,0.00,,,0.00,Wunderground v.1.15,2013-04-21 09:10:00,
2013-04-21 05:15:00,32.4,18.0,30.45,NNW,333,9.0,9.0,55,0.00,,,0.00,Wunderground v.1.15,2013-04-21 09:15:00,
2013-04-21 05:20:00,32.3,18.3,30.45,NE,37,7.0,7.0,56,0.00,,,0.00,Wunderground v.1.15,2013-04-21 09:20:00,
2013-04-21 05:25:00,32.3,18.3,30.46,North,355,7.0,9.0,56,0.00,,,0.00,Wunderground v.1.15,2013-04-21 09:25:00,
2013-04-21 05:35:00,32.1,18.2,30.47,NNW,340,8.0,14.0,56,0.00,,,0.00,Wunderground v.1.15,2013-04-21 09:35:00,
2013-04-21 05:45:00,32.0,18.1,30.47,NNW,335,8.0,9.0,56,0.00,,,0.00,Wunderground v.1.15,2013-04-21 09:45:00,
2013-04-21 05:55:00,32.0,17.6,30.48,NNW,346,9.0,9.0,55,0.00,,,0.00,Wunderground v.1.15,2013-04-21 09:55:00,
2013-04-21 06:00:00,31.9,17.5,30.49,NNW,348,9.0,10.0,55,0.00,,,0.00,Wunderground v.1.15,2013-04-21 10:00:00,
2013-04-21 06:10:00,31.7,17.8,30.49,NNW,338,7.0,7.0,56,0.00,,,0.00,Wunderground v.1.15,2013-04-21 10:10:00,
2013-04-21 06:15:00,31.7,17.8,30.50,North,5,5.0,10.0,56,0.00,,,0.00,Wunderground v.1.15,2013-04-21 10:15:00,
2013-04-21 06:20:00,31.7,17.4,30.50,NW,326,5.0,5.0,55,0.00,,,0.00,Wunderground v.1.15,2013-04-21 10:20:00,
2013-04-21 06:30:00,31.7,16.5,30.52,NW,317,6.0,6.0,53,0.00,,,0.00,Wunderground v.1.15,2013-04-21 10:30:00,
2013-04-21 06:35:00,31.6,16.4,30.52,West,279,8.0,10.0,53,0.00,,,0.00,Wunderground v.1.15,2013-04-21 10:35:00,
2013-04-21 06:40:00,31.6,16.4,30.52,NW,307,10.0,15.0,53,0.00,,,0.00,Wunderground v.1.15,2013-04-21 10:40:00,
2013-04-21 06:45:00,31.6,16.4,30.52,West,281,10.0,15.0,53,0.00,,,0.00,Wunderground v.1.15,2013-04-21 10:45:00,
2013-04-21 06:50:00,31.7,16.9,30.53,NW,317,10.0,10.0,54,0.00,,,0.00,Wunderground v.1.15,2013-04-21 10:50:00,
2013-04-21 06:55:00,31.8,17.0,30.53,NNW,329,9.0,10.0,54,0.00,,,0.00,Wunderground v.1.15,2013-04-21 10:55:00,
2013-04-21 07:00:00,31.9,17.1,30.54,North,5,8.0,11.0,54,0.00,,,0.00,Wunderground v.1.15,2013-04-21 11:00:00,
2013-04-21 07:05:00,31.9,17.1,30.55,North,5,7.0,11.0,54,0.00,,,0.00,Wunderground v.1.15,2013-04-21 11:05:00,
2013-04-21 07:10:00,31.9,17.1,30.55,NNW,327,7.0,7.0,54,0.00,,,0.00,Wunderground v.1.15,2013-04-21 11:10:00,
2013-04-21 07:15:00,32.1,17.7,30.55,North,5,8.0,8.0,55,0.00,,,0.00,Wunderground v.1.15,2013-04-21 11:15:00,
2013-04-21 07:20:00,32.2,17.8,30.56,WNW,286,7.0,7.0,55,0.00,,,0.00,Wunderground v.1.15,2013-04-21 11:20:00,
2013-04-21 07:30:00,32.5,17.7,30.56,NW,312,6.0,9.0,54,0.00,,,0.00,Wunderground v.1.15,2013-04-21 11:30:00,
2013-04-21 07:35:00,32.6,17.8,30.57,NNW,343,5.0,9.0,54,0.00,,,0.00,Wunderground v.1.15,2013-04-21 11:35:00,
2013-04-21 07:40:00,32.6,17.3,30.57,NNW,334,6.0,6.0,53,0.00,,,0.00,Wunderground v.1.15,2013-04-21 11:40:00,
2013-04-21 07:45:00,32.5,17.7,30.57,NNW,333,8.0,11.0,54,0.00,,,0.00,Wunderground v.1.15,2013-04-21 11:45:00,
2013-04-21 07:50:00,32.5,18.1,30.58,WNW,298,8.0,8.0,55,0.00,,,0.00,Wunderground v.1.15,2013-04-21 11:50:00,
2013-04-21 07:55:00,32.6,18.2,30.58,NNE,22,7.0,8.0,55,0.00,,,0.00,Wunderground v.1.15,2013-04-21 11:55:00,
2013-04-21 08:01:00,32.5,16.8,30.58,WNW,286,8.0,12.0,52,0.00,,,0.00,Wunderground v.1.15,2013-04-21 12:01:00,
2013-04-21 08:05:00,32.5,17.2,30.58,NNW,342,8.0,14.0,53,0.00,,,0.00,Wunderground v.1.15,2013-04-21 12:05:00,
2013-04-21 08:10:00,32.4,16.7,30.58,North,5,9.0,14.0,52,0.00,,,0.00,Wunderground v.1.15,2013-04-21 12:10:00,
2013-04-21 08:15:00,32.7,17.4,30.59,NNW,348,8.0,8.0,53,0.00,,,0.00,Wunderground v.1.15,2013-04-21 12:15:00,
2013-04-21 08:20:00,33.0,16.8,30.59,West,269,6.0,15.0,51,0.00,,,0.00,Wunderground v.1.15,2013-04-21 12:20:00,
2013-04-21 08:25:00,33.0,16.8,30.59,NW,306,7.0,8.0,51,0.00,,,0.00,Wunderground v.1.15,2013-04-21 12:25:00,
2013-04-21 08:30:00,33.1,16.5,30.59,NNW,338,8.0,8.0,50,0.00,,,0.00,Wunderground v.1.15,2013-04-21 12:30:00,
2013-04-21 08:35:00,33.2,15.6,30.59,WNW,290,8.0,8.0,48,0.00,,,0.00,Wunderground v.1.15,2013-04-21 12:35:00,
2013-04-21 08:40:00,33.5,15.4,30.59,NNW,335,7.0,9.0,47,0.00,,,0.00,Wunderground v.1.15,2013-04-21 12:40:00,
2013-04-21 08:45:00,33.5,15.4,30.59,NW,306,8.0,8.0,47,0.00,,,0.00,Wunderground v.1.15,2013-04-21 12:45:00,
2013-04-21 08:50:00,33.5,14.9,30.59,NNW,327,10.0,10.0,46,0.00,,,0.00,Wunderground v.1.15,2013-04-21 12:50:00,
2013-04-21 08:55:00,33.4,14.8,30.60,NNE,18,9.0,9.0,46,0.00,,,0.00,Wunderground v.1.15,2013-04-21 12:55:00,
2013-04-21 09:00:00,34.0,15.4,30.60,WNW,299,7.0,15.0,46,0.00,,,0.00,Wunderground v.1.15,2013-04-21 13:00:00,
2013-04-21 09:05:00,33.9,15.3,30.60,NNE,19,7.0,15.0,46,0.00,,,0.00,Wunderground v.1.15,2013-04-21 13:05:00,
2013-04-21 09:10:00,34.1,15.5,30.61,NNE,12,7.0,7.0,46,0.00,,,0.00,Wunderground v.1.15,2013-04-21 13:10:00,
2013-04-21 09:15:00,34.1,15.5,30.61,NNW,333,7.0,7.0,46,0.00,,,0.00,Wunderground v.1.15,2013-04-21 13:15:00,
2013-04-21 09:20:00,34.2,15.5,30.61,NNE,25,7.0,7.0,46,0.00,,,0.00,Wunderground v.1.15,2013-04-21 13:20:00,
2013-04-21 09:30:00,34.7,15.5,30.61,WNW,284,7.0,7.0,45,0.00,,,0.00,Wunderground v.1.15,2013-04-21 13:30:00,
2013-04-21 09:35:00,34.7,15.5,30.62,NW,325,7.0,9.0,45,0.00,,,0.00,Wunderground v.1.15,2013-04-21 13:35:00,
2013-04-21 09:40:00,34.4,15.2,30.62,West,265,8.0,11.0,45,0.00,,,0.00,Wunderground v.1.15,2013-04-21 13:40:00,
2013-04-21 09:45:00,35.0,16.8,30.62,West,273,7.0,11.0,47,0.00,,,0.00,Wunderground v.1.15,2013-04-21 13:45:00,
2013-04-21 09:50:00,35.3,16.6,30.62,North,360,6.0,7.0,46,0.00,,,0.00,Wunderground v.1.15,2013-04-21 13:50:00,
2013-04-21 09:55:00,35.1,16.4,30.62,NNE,31,7.0,8.0,46,0.00,,,0.00,Wunderground v.1.15,2013-04-21 13:55:00,
2013-04-21 10:00:00,35.5,16.2,30.63,WNW,293,7.0,8.0,45,0.00,,,0.00,Wunderground v.1.15,2013-04-21 14:00:00,
2013-04-21 10:05:00,35.9,16.6,30.63,NNW,339,6.0,8.0,45,0.00,,,0.00,Wunderground v.1.15,2013-04-21 14:05:00,
2013-04-21 10:15:00,35.7,16.4,30.63,NNE,32,5.0,6.0,45,0.00,,,0.00,Wunderground v.1.15,2013-04-21 14:15:00,
2013-04-21 10:20:00,36.3,17.5,30.63,NW,323,5.0,7.0,46,0.00,,,0.00,Wunderground v.1.15,2013-04-21 14:20:00,
2013-04-21 10:25:00,36.2,15.8,30.63,WNW,282,6.0,7.0,43,0.00,,,0.00,Wunderground v.1.15,2013-04-21 14:25:00,
2013-04-21 10:30:00,36.5,17.1,30.63,NW,325,6.0,6.0,45,0.00,,,0.00,Wunderground v.1.15,2013-04-21 14:30:00,
2013-04-21 10:35:00,37.1,16.6,30.63,NW,321,5.0,11.0,43,0.00,,,0.00,Wunderground v.1.15,2013-04-21 14:35:00,
2013-04-21 10:45:00,36.7,16.8,30.63,NE,51,4.0,6.0,44,0.00,,,0.00,Wunderground v.1.15,2013-04-21 14:45:00,
2013-04-21 10:50:00,37.1,16.6,30.64,NNE,33,4.0,7.0,43,0.00,,,0.00,Wunderground v.1.15,2013-04-21 14:50:00,
2013-04-21 10:55:00,37.1,16.6,30.64,NNW,331,6.0,7.0,43,0.00,,,0.00,Wunderground v.1.15,2013-04-21 14:55:00,
2013-04-21 11:00:00,37.9,16.3,30.64,NNW,341,5.0,5.0,41,0.00,,,0.00,Wunderground v.1.15,2013-04-21 15:00:00,
2013-04-21 11:05:00,37.9,16.3,30.64,NNE,16,4.0,5.0,41,0.00,,,0.00,Wunderground v.1.15,2013-04-21 15:05:00,
2013-04-21 11:10:00,37.8,17.3,30.64,NNE,15,6.0,6.0,43,0.00,,,0.00,Wunderground v.1.15,2013-04-21 15:10:00,
2013-04-21 11:15:00,37.7,16.6,30.65,NE,41,7.0,7.0,42,0.00,,,0.00,Wunderground v.1.15,2013-04-21 15:15:00,
2013-04-21 11:20:00,37.7,16.6,30.65,NW,325,6.0,6.0,42,0.00,,,0.00,Wunderground v.1.15,2013-04-21 15:20:00,
2013-04-21 11:25:00,38.3,17.7,30.65,NNW,344,5.0,6.0,43,0.00,,,0.00,Wunderground v.1.15,2013-04-21 15:25:00,
2013-04-21 11:30:00,38.8,17.6,30.65,NNE,27,5.0,6.0,42,0.00,,,0.00,Wunderground v.1.15,2013-04-21 15:30:00,
2013-04-21 11:35:00,38.5,16.8,30.65,NNE,26,6.0,9.0,41,0.00,,,0.00,Wunderground v.1.15,2013-04-21 15:35:00,
2013-04-21 11:40:00,37.9,16.8,30.65,NE,38,8.0,8.0,42,0.00,,,0.00,Wunderground v.1.15,2013-04-21 15:40:00,
2013-04-21 11:45:00,38.3,16.6,30.65,NNE,20,5.0,8.0,41,0.00,,,0.00,Wunderground v.1.15,2013-04-21 15:45:00,
2013-04-21 11:50:00,38.4,16.7,30.65,NNE,19,3.0,7.0,41,0.00,,,0.00,Wunderground v.1.15,2013-04-21 15:50:00,
2013-04-21 11:55:00,38.8,17.1,30.65,NE,43,5.0,7.0,41,0.00,,,0.00,Wunderground v.1.15,2013-04-21 15:55:00,
2013-04-21 12:00:00,39.9,17.5,30.65,WNW,293,7.0,7.0,40,0.00,,,0.00,Wunderground v.1.15,2013-04-21 16:00:00,
2013-04-21 12:05:00,39.6,16.6,30.66,NNE,30,6.0,7.0,39,0.00,,,0.00,Wunderground v.1.15,2013-04-21 16:05:00,
2013-04-21 12:10:00,39.5,17.7,30.66,NNW,348,5.0,5.0,41,0.00,,,0.00,Wunderground v.1.15,2013-04-21 16:10:00,
2013-04-21 12:15:00,39.9,16.9,30.66,WNW,291,4.0,10.0,39,0.00,,,0.00,Wunderground v.1.15,2013-04-21 16:15:00,
2013-04-21 12:20:00,39.8,16.8,30.66,SSW,202,5.0,5.0,39,0.00,,,0.00,Wunderground v.1.15,2013-04-21 16:20:00,
2013-04-21 12:25:00,40.5,16.9,30.66,North,10,6.0,7.0,38,0.00,,,0.00,Wunderground v.1.15,2013-04-21 16:25:00,
2013-04-21 12:30:00,40.3,16.7,30.66,West,275,6.0,9.0,38,0.00,,,0.00,Wunderground v.1.15,2013-04-21 16:30:00,
2013-04-21 12:35:00,40.4,18.0,30.66,NW,315,5.0,9.0,40,0.00,,,0.00,Wunderground v.1.15,2013-04-21 16:35:00,
2013-04-21 12:40:00,40.5,16.9,30.66,North,360,6.0,6.0,38,0.00,,,0.00,Wunderground v.1.15,2013-04-21 16:40:00,
2013-04-21 12:45:00,40.7,16.4,30.66,NNE,19,6.0,6.0,37,0.00,,,0.00,Wunderground v.1.15,2013-04-21 16:45:00,
2013-04-21 12:50:00,40.7,16.4,30.66,WSW,255,5.0,5.0,37,0.00,,,0.00,Wunderground v.1.15,2013-04-21 16:50:00,
2013-04-21 12:55:00,41.3,17.6,30.66,NNE,25,4.0,14.0,38,0.00,,,0.00,Wunderground v.1.15,2013-04-21 16:55:00,
2013-04-21 13:00:00,41.3,17.6,30.66,North,11,6.0,12.0,38,0.00,,,0.00,Wunderground v.1.15,2013-04-21 17:00:00,
2013-04-21 13:05:00,41.1,16.8,30.66,NE,42,7.0,12.0,37,0.00,,,0.00,Wunderground v.1.15,2013-04-21 17:05:00,
2013-04-21 13:10:00,41.5,17.1,30.66,NNW,345,5.0,6.0,37,0.00,,,0.00,Wunderground v.1.15,2013-04-21 17:10:00,
2013-04-21 13:15:00,42.0,17.6,30.66,NNE,15,4.0,6.0,37,0.00,,,0.00,Wunderground v.1.15,2013-04-21 17:15:00,
2013-04-21 13:20:00,42.1,18.3,30.66,ENE,74,4.0,4.0,38,0.00,,,0.00,Wunderground v.1.15,2013-04-21 17:20:00,
2013-04-21 13:25:00,42.0,16.3,30.66,ENE,58,5.0,6.0,35,0.00,,,0.00,Wunderground v.1.15,2013-04-21 17:25:00,
2013-04-21 13:30:00,42.0,17.6,30.66,ENE,58,6.0,6.0,37,0.00,,,0.00,Wunderground v.1.15,2013-04-21 17:30:00,
2013-04-21 13:40:00,42.8,18.3,30.66,NE,35,6.0,6.0,37,0.00,,,0.00,Wunderground v.1.15,2013-04-21 17:40:00,
2013-04-21 13:45:00,42.5,16.7,30.66,NNE,19,5.0,7.0,35,0.00,,,0.00,Wunderground v.1.15,2013-04-21 17:45:00,
2013-04-21 13:50:00,42.5,16.7,30.66,NE,48,6.0,6.0,35,0.00,,,0.00,Wunderground v.1.15,2013-04-21 17:50:00,
2013-04-21 13:55:00,42.8,16.3,30.66,ENE,61,4.0,6.0,34,0.00,,,0.00,Wunderground v.1.15,2013-04-21 17:55:00,
2013-04-21 14:01:00,43.7,17.8,30.66,NE,44,3.0,3.0,35,0.00,,,0.00,Wunderground v.1.15,2013-04-21 18:01:00,
2013-04-21 14:05:00,43.7,17.8,30.66,East,80,4.0,6.0,35,0.00,,,0.00,Wunderground v.1.15,2013-04-21 18:05:00,
2013-04-21 14:10:00,43.5,17.6,30.66,ENE,67,5.0,5.0,35,0.00,,,0.00,Wunderground v.1.15,2013-04-21 18:10:00,
2013-04-21 14:15:00,43.7,18.5,30.66,ENE,63,5.0,7.0,36,0.00,,,0.00,Wunderground v.1.15,2013-04-21 18:15:00,
2013-04-21 14:25:00,44.8,18.1,30.66,NNE,32,3.0,9.0,34,0.00,,,0.00,Wunderground v.1.15,2013-04-21 18:25:00,
2013-04-21 14:30:00,44.8,18.1,30.66,WNW,282,3.0,5.0,34,0.00,,,0.00,Wunderground v.1.15,2013-04-21 18:30:00,
2013-04-21 14:35:00,44.6,16.5,30.66,North,360,4.0,5.0,32,0.00,,,0.00,Wunderground v.1.15,2013-04-21 18:35:00,
2013-04-21 14:40:00,44.6,17.2,30.66,ENE,63,5.0,10.0,33,0.00,,,0.00,Wunderground v.1.15,2013-04-21 18:40:00,
2013-04-21 14:45:00,44.6,16.5,30.66,ENE,71,5.0,10.0,32,0.00,,,0.00,Wunderground v.1.15,2013-04-21 18:45:00,
2013-04-21 14:50:00,45.5,18.0,30.66,North,11,5.0,6.0,33,0.00,,,0.00,Wunderground v.1.15,2013-04-21 18:50:00,
2013-04-21 14:55:00,45.1,17.0,30.66,NNE,26,4.0,6.0,32,0.00,,,0.00,Wunderground v.1.15,2013-04-21 18:55:00,
2013-04-21 15:00:00,45.4,16.5,30.66,NNW,343,5.0,5.0,31,0.00,,,0.00,Wunderground v.1.15,2013-04-21 19:00:00,
2013-04-21 15:10:00,45.3,16.4,30.66,NNE,22,5.0,10.0,31,0.00,,,0.00,Wunderground v.1.15,2013-04-21 19:10:00,
2013-04-21 15:15:00,45.3,16.4,30.67,NNE,32,6.0,10.0,31,0.00,,,0.00,Wunderground v.1.15,2013-04-21 19:15:00,
2013-04-21 15:20:00,45.0,15.4,30.67,SE,132,6.0,6.0,30,0.00,,,0.00,Wunderground v.1.15,2013-04-21 19:20:00,
2013-04-21 15:25:00,46.0,18.5,30.67,NE,51,3.0,6.0,33,0.00,,,0.00,Wunderground v.1.15,2013-04-21 19:25:00,
2013-04-21 15:30:00,46.5,15.9,30.67,North,360,4.0,12.0,29,0.00,,,0.00,Wunderground v.1.15,2013-04-21 19:30:00,
2013-04-21 15:35:00,45.9,15.4,30.67,North,5,6.0,12.0,29,0.00,,,0.00,Wunderground v.1.15,2013-04-21 19:35:00,
2013-04-21 15:40:00,46.2,16.4,30.67,NE,45,7.0,7.0,30,0.00,,,0.00,Wunderground v.1.15,2013-04-21 19:40:00,
2013-04-21 15:45:00,46.6,16.8,30.67,West,267,4.0,7.0,30,0.00,,,0.00,Wunderground v.1.15,2013-04-21 19:45:00,
2013-04-21 15:50:00,46.5,16.7,30.67,NNE,22,4.0,4.0,30,0.00,,,0.00,Wunderground v.1.15,2013-04-21 19:50:00,
2013-04-21 15:55:00,46.3,15.7,30.67,NE,35,5.0,9.0,29,0.00,,,0.00,Wunderground v.1.15,2013-04-21 19:55:00,
2013-04-21 16:01:00,46.3,15.7,30.67,ESE,116,5.0,5.0,29,0.00,,,0.00,Wunderground v.1.15,2013-04-21 20:01:00,
2013-04-21 16:05:00,46.5,15.9,30.68,North,351,4.0,5.0,29,0.00,,,0.00,Wunderground v.1.15,2013-04-21 20:05:00,
2013-04-21 16:10:00,47.2,16.5,30.68,NE,45,4.0,9.0,29,0.00,,,0.00,Wunderground v.1.15,2013-04-21 20:10:00,
2013-04-21 16:15:00,46.7,16.1,30.68,NE,44,5.0,5.0,29,0.00,,,0.00,Wunderground v.1.15,2013-04-21 20:15:00,
2013-04-21 16:20:00,46.5,15.9,30.68,NE,34,5.0,7.0,29,0.00,,,0.00,Wunderground v.1.15,2013-04-21 20:20:00,
2013-04-21 16:25:00,46.4,15.0,30.68,NE,44,4.0,4.0,28,0.00,,,0.00,Wunderground v.1.15,2013-04-21 20:25:00,
2013-04-21 16:30:00,46.6,16.0,30.67,NNE,32,4.0,4.0,29,0.00,,,0.00,Wunderground v.1.15,2013-04-21 20:30:00,
2013-04-21 16:35:00,46.9,16.3,30.68,NE,39,4.0,4.0,29,0.00,,,0.00,Wunderground v.1.15,2013-04-21 20:35:00,
2013-04-21 16:40:00,46.7,15.3,30.68,ENE,71,5.0,12.0,28,0.00,,,0.00,Wunderground v.1.15,2013-04-21 20:40:00,
2013-04-21 16:45:00,46.4,15.0,30.68,NNE,15,7.0,7.0,28,0.00,,,0.00,Wunderground v.1.15,2013-04-21 20:45:00,
2013-04-21 16:50:00,47.0,17.1,30.68,ENE,60,5.0,7.0,30,0.00,,,0.00,Wunderground v.1.15,2013-04-21 20:50:00,
2013-04-21 16:55:00,47.1,14.8,30.68,East,88,4.0,5.0,27,0.00,,,0.00,Wunderground v.1.15,2013-04-21 20:55:00,
2013-04-21 17:00:00,46.7,14.4,30.69,East,86,6.0,6.0,27,0.00,,,0.00,Wunderground v.1.15,2013-04-21 21:00:00,
2013-04-21 17:05:00,47.0,16.3,30.69,East,86,5.0,6.0,29,0.00,,,0.00,Wunderground v.1.15,2013-04-21 21:05:00,
2013-04-21 17:10:00,46.8,14.5,30.69,East,88,5.0,5.0,27,0.00,,,0.00,Wunderground v.1.15,2013-04-21 21:10:00,
2013-04-21 17:15:00,46.6,14.4,30.69,SE,125,6.0,6.0,27,0.00,,,0.00,Wunderground v.1.15,2013-04-21 21:15:00,
2013-04-21 17:20:00,46.7,14.4,30.69,SE,124,4.0,4.0,27,0.00,,,0.00,Wunderground v.1.15,2013-04-21 21:20:00,
2013-04-21 17:25:00,47.2,14.9,30.69,East,93,3.0,4.0,27,0.00,,,0.00,Wunderground v.1.15,2013-04-21 21:25:00,
2013-04-21 17:30:00,47.2,15.7,30.70,East,81,3.0,6.0,28,0.00,,,0.00,Wunderground v.1.15,2013-04-21 21:30:00,
2013-04-21 17:35:00,46.7,14.4,30.70,East,80,6.0,7.0,27,0.00,,,0.00,Wunderground v.1.15,2013-04-21 21:35:00,
2013-04-21 17:40:00,46.5,14.3,30.70,East,99,7.0,7.0,27,0.00,,,0.00,Wunderground v.1.15,2013-04-21 21:40:00,
2013-04-21 17:45:00,46.4,14.2,30.70,ENE,69,5.0,7.0,27,0.00,,,0.00,Wunderground v.1.15,2013-04-21 21:45:00,
2013-04-21 17:50:00,46.5,15.1,30.70,ESE,120,4.0,5.0,28,0.00,,,0.00,Wunderground v.1.15,2013-04-21 21:50:00,
2013-04-21 17:55:00,46.9,15.4,30.70,ENE,58,4.0,5.0,28,0.00,,,0.00,Wunderground v.1.15,2013-04-21 21:55:00,
2013-04-21 18:00:00,46.4,14.2,30.71,NE,36,6.0,6.0,27,0.00,,,0.00,Wunderground v.1.15,2013-04-21 22:00:00,
2013-04-21 18:05:00,46.0,14.7,30.71,ENE,68,7.0,7.0,28,0.00,,,0.00,Wunderground v.1.15,2013-04-21 22:05:00,
2013-04-21 18:10:00,46.1,13.9,30.71,ENE,75,6.0,6.0,27,0.00,,,0.00,Wunderground v.1.15,2013-04-21 22:10:00,
2013-04-21 18:15:00,46.2,14.0,30.71,East,101,5.0,7.0,27,0.00,,,0.00,Wunderground v.1.15,2013-04-21 22:15:00,
2013-04-21 18:20:00,46.1,13.9,30.71,ENE,63,6.0,9.0,27,0.00,,,0.00,Wunderground v.1.15,2013-04-21 22:20:00,
2013-04-21 18:25:00,46.0,14.7,30.71,NE,47,6.0,9.0,28,0.00,,,0.00,Wunderground v.1.15,2013-04-21 22:25:00,
2013-04-21 18:30:00,45.9,14.6,30.72,ENE,75,6.0,6.0,28,0.00,,,0.00,Wunderground v.1.15,2013-04-21 22:30:00,
2013-04-21 18:35:00,45.8,14.5,30.72,ENE,58,6.0,6.0,28,0.00,,,0.00,Wunderground v.1.15,2013-04-21 22:35:00,
2013-04-21 18:40:00,45.7,14.4,30.72,ENE,59,6.0,6.0,28,0.00,,,0.00,Wunderground v.1.15,2013-04-21 22:40:00,
2013-04-21 18:45:00,45.6,14.3,30.72,East,92,5.0,6.0,28,0.00,,,0.00,Wunderground v.1.15,2013-04-21 22:45:00,
2013-04-21 18:50:00,45.4,14.9,30.73,ENE,58,5.0,5.0,29,0.00,,,0.00,Wunderground v.1.15,2013-04-21 22:50:00,
2013-04-21 18:55:00,45.3,14.9,30.73,NE,55,5.0,5.0,29,0.00,,,0.00,Wunderground v.1.15,2013-04-21 22:55:00,
2013-04-21 19:00:00,45.1,14.7,30.73,NE,54,5.0,6.0,29,0.00,,,0.00,Wunderground v.1.15,2013-04-21 23:00:00,
2013-04-21 19:05:00,44.9,15.3,30.73,NE,48,4.0,6.0,30,0.00,,,0.00,Wunderground v.1.15,2013-04-21 23:05:00,
2013-04-21 19:10:00,44.6,14.3,30.74,ENE,69,4.0,4.0,29,0.00,,,0.00,Wunderground v.1.15,2013-04-21 23:10:00,
2013-04-21 19:15:00,44.4,14.9,30.74,East,85,4.0,4.0,30,0.00,,,0.00,Wunderground v.1.15,2013-04-21 23:15:00,
2013-04-21 19:20:00,44.2,14.7,30.74,East,84,4.0,4.0,30,0.00,,,0.00,Wunderground v.1.15,2013-04-21 23:20:00,
2013-04-21 19:25:00,43.9,14.4,30.75,East,90,3.0,4.0,30,0.00,,,0.00,Wunderground v.1.15,2013-04-21 23:25:00,
2013-04-21 19:30:00,43.5,15.5,30.75,East,100,3.0,3.0,32,0.00,,,0.00,Wunderground v.1.15,2013-04-21 23:30:00,
2013-04-21 19:35:00,43.2,15.3,30.75,ENE,78,2.0,3.0,32,0.00,,,0.00,Wunderground v.1.15,2013-04-21 23:35:00,
2013-04-21 19:40:00,42.9,15.7,30.75,ENE,78,1.0,1.0,33,0.00,,,0.00,Wunderground v.1.15,2013-04-21 23:40:00,
2013-04-21 19:45:00,42.5,15.4,30.76,East,86,1.0,2.0,33,0.00,,,0.00,Wunderground v.1.15,2013-04-21 23:45:00,
2013-04-21 19:50:00,42.1,15.0,30.76,East,86,1.0,1.0,33,0.00,,,0.00,Wunderground v.1.15,2013-04-21 23:50:00,
2013-04-21 19:55:00,41.8,14.8,30.76,East,86,2.0,2.0,33,0.00,,,0.00,Wunderground v.1.15,2013-04-21 23:55:00,
2013-04-21 20:00:00,41.5,15.2,30.77,SE,130,2.0,3.0,34,0.00,,,0.00,Wunderground v.1.15,2013-04-22 00:00:00,
2013-04-21 20:05:00,41.4,15.1,30.77,ESE,122,2.0,3.0,34,0.00,,,0.00,Wunderground v.1.15,2013-04-22 00:05:00,
2013-04-21 20:10:00,41.3,15.0,30.77,ESE,115,2.0,2.0,34,0.00,,,0.00,Wunderground v.1.15,2013-04-22 00:10:00,
2013-04-21 20:15:00,41.3,15.0,30.78,SE,126,2.0,3.0,34,0.00,,,0.00,Wunderground v.1.15,2013-04-22 00:15:00,
2013-04-21 20:20:00,41.2,14.9,30.78,East,92,2.0,2.0,34,0.00,,,0.00,Wunderground v.1.15,2013-04-22 00:20:00,
2013-04-21 20:25:00,41.2,15.6,30.78,East,80,2.0,3.0,35,0.00,,,0.00,Wunderground v.1.15,2013-04-22 00:25:00,
2013-04-21 20:30:00,41.1,14.8,30.78,ENE,78,2.0,2.0,34,0.00,,,0.00,Wunderground v.1.15,2013-04-22 00:30:00,
2013-04-21 20:35:00,41.1,14.8,30.78,East,97,2.0,2.0,34,0.00,,,0.00,Wunderground v.1.15,2013-04-22 00:35:00,
2013-04-21 20:40:00,40.8,14.6,30.78,East,97,1.0,2.0,34,0.00,,,0.00,Wunderground v.1.15,2013-04-22 00:40:00,
2013-04-21 20:45:00,40.6,14.4,30.78,East,97,1.0,2.0,34,0.00,,,0.00,Wunderground v.1.15,2013-04-22 00:45:00,
2013-04-21 20:50:00,40.3,14.1,30.78,East,96,1.0,2.0,34,0.00,,,0.00,Wunderground v.1.15,2013-04-22 00:50:00,
2013-04-21 21:00:00,40.2,14.7,30.79,East,81,2.0,2.0,35,0.00,,,0.00,Wunderground v.1.15,2013-04-22 01:00:00,
2013-04-21 21:05:00,40.2,14.7,30.79,East,98,2.0,2.0,35,0.00,,,0.00,Wunderground v.1.15,2013-04-22 01:05:00,
2013-04-21 21:10:00,40.1,14.6,30.79,East,98,2.0,2.0,35,0.00,,,0.00,Wunderground v.1.15,2013-04-22 01:10:00,
2013-04-21 21:15:00,40.2,14.0,30.79,East,90,3.0,3.0,34,0.00,,,0.00,Wunderground v.1.15,2013-04-22 01:15:00,
2013-04-21 21:20:00,40.2,14.7,30.80,SE,132,2.0,2.0,35,0.00,,,0.00,Wunderground v.1.15,2013-04-22 01:20:00,
2013-04-21 21:25:00,40.1,14.6,30.80,ESE,109,2.0,3.0,35,0.00,,,0.00,Wunderground v.1.15,2013-04-22 01:25:00,
2013-04-21 21:30:00,39.9,14.4,30.80,East,88,3.0,6.0,35,0.00,,,0.00,Wunderground v.1.15,2013-04-22 01:30:00,
2013-04-21 21:35:00,39.7,14.2,30.80,East,98,3.0,6.0,35,0.00,,,0.00,Wunderground v.1.15,2013-04-22 01:35:00,
2013-04-21 21:45:00,39.3,14.5,30.81,ESE,107,3.0,3.0,36,0.00,,,0.00,Wunderground v.1.15,2013-04-22 01:45:00,
2013-04-21 21:50:00,39.2,14.4,30.81,ESE,113,3.0,3.0,36,0.00,,,0.00,Wunderground v.1.15,2013-04-22 01:50:00,
2013-04-21 21:55:00,39.0,14.3,30.81,East,98,3.0,3.0,36,0.00,,,0.00,Wunderground v.1.15,2013-04-22 01:55:00,
2013-04-21 22:00:00,39.1,14.4,30.81,East,86,3.0,3.0,36,0.00,,,0.00,Wunderground v.1.15,2013-04-22 02:00:00,
2013-04-21 22:05:00,38.9,14.2,30.81,ESE,122,3.0,4.0,36,0.00,,,0.00,Wunderground v.1.15,2013-04-22 02:05:00,
2013-04-21 22:10:00,38.9,14.8,30.81,East,98,3.0,3.0,37,0.00,,,0.00,Wunderground v.1.15,2013-04-22 02:10:00,
2013-04-21 22:15:00,38.8,14.7,30.82,East,96,3.0,3.0,37,0.00,,,0.00,Wunderground v.1.15,2013-04-22 02:15:00,
2013-04-21 22:20:00,38.6,14.5,30.82,East,94,3.0,3.0,37,0.00,,,0.00,Wunderground v.1.15,2013-04-22 02:20:00,
2013-04-21 22:25:00,38.5,14.4,30.82,ESE,108,3.0,3.0,37,0.00,,,0.00,Wunderground v.1.15,2013-04-22 02:25:00,
2013-04-21 22:30:00,38.4,14.4,30.82,East,84,3.0,3.0,37,0.00,,,0.00,Wunderground v.1.15,2013-04-22 02:30:00,
2013-04-21 22:35:00,38.3,15.5,30.83,East,80,3.0,3.0,39,0.00,,,0.00,Wunderground v.1.15,2013-04-22 02:35:00,
2013-04-21 22:40:00,38.0,14.0,30.83,East,80,3.0,3.0,37,0.00,,,0.00,Wunderground v.1.15,2013-04-22 02:40:00,
2013-04-21 22:45:00,38.1,14.7,30.83,East,84,3.0,3.0,38,0.00,,,0.00,Wunderground v.1.15,2013-04-22 02:45:00,
2013-04-21 22:50:00,38.1,14.7,30.83,ENE,78,3.0,3.0,38,0.00,,,0.00,Wunderground v.1.15,2013-04-22 02:50:00,
2013-04-21 22:55:00,37.9,14.5,30.83,East,88,3.0,3.0,38,0.00,,,0.00,Wunderground v.1.15,2013-04-22 02:55:00,
2013-04-21 23:00:00,37.8,14.4,30.83,ESE,109,3.0,3.0,38,0.00,,,0.00,Wunderground v.1.15,2013-04-22 03:00:00,
2013-04-21 23:05:00,37.8,13.8,30.83,ESE,103,3.0,4.0,37,0.00,,,0.00,Wunderground v.1.15,2013-04-22 03:05:00,
2013-04-21 23:10:00,37.7,14.3,30.83,East,90,3.0,3.0,38,0.00,,,0.00,Wunderground v.1.15,2013-04-22 03:10:00,
2013-04-21 23:15:00,37.7,14.3,30.83,East,85,3.0,3.0,38,0.00,,,0.00,Wunderground v.1.15,2013-04-22 03:15:00,
2013-04-21 23:20:00,37.6,14.2,30.83,East,97,3.0,4.0,38,0.00,,,0.00,Wunderground v.1.15,2013-04-22 03:20:00,
2013-04-21 23:25:00,37.7,13.7,30.83,East,84,3.0,4.0,37,0.00,,,0.00,Wunderground v.1.15,2013-04-22 03:25:00,
2013-04-21 23:30:00,37.7,13.7,30.83,East,90,4.0,4.0,37,0.00,,,0.00,Wunderground v.1.15,2013-04-22 03:30:00,
2013-04-21 23:35:00,37.8,13.2,30.83,East,96,3.0,4.0,36,0.00,,,0.00,Wunderground v.1.15,2013-04-22 03:35:00,
2013-04-21 23:40:00,37.7,13.1,30.83,ENE,69,3.0,3.0,36,0.00,,,0.00,Wunderground v.1.15,2013-04-22 03:40:00,
2013-04-21 23:45:00,37.6,13.6,30.83,East,88,2.0,3.0,37,0.00,,,0.00,Wunderground v.1.15,2013-04-22 03:45:00,
2013-04-21 23:50:00,37.4,13.5,30.83,East,98,2.0,3.0,37,0.00,,,0.00,Wunderground v.1.15,2013-04-22 03:50:00,
2013-04-21 23:55:00,37.1,13.2,30.83,East,87,2.0,3.0,37,0.00,,,0.00,Wunderground v.1.15,2013-04-22 03:55:00,